Time;durP1;ratioP1;P1;durP2;ratioP2;P2;SDS_P1;SDS_P2;PMS_P1;PMS_P2;Temp;Humidity;BMP_temperature;BMP_pressure;BME280_temperature;BME280_humidity;BME280_pressure;Samples;Min_cycle;Max_cycle;Signal;HPM_P1;HPM_P2
2023/08/20 00:01:30;;;;;;;9.70;5.90;;;;;;;23.21;61.22;97215.59;5069820;28;20671;-75
2023/08/20 00:03:57;;;;;;;10.63;6.27;;;;;;;22.91;62.08;97205.25;5069748;28;20192;-75
2023/08/20 00:06:25;;;;;;;7.77;5.93;;;;;;;23.01;61.97;97209.53;5070068;28;20195;-77
2023/08/20 00:08:52;;;;;;;7.23;6.27;;;;;;;22.85;62.14;97204.00;5067917;28;20221;-75
2023/08/20 00:11:19;;;;;;;7.73;5.80;;;;;;;22.68;62.37;97162.47;5069999;28;20199;-75
2023/08/20 00:13:46;;;;;;;6.43;5.77;;;;;;;22.59;62.64;97153.59;5067889;28;20765;-76
2023/08/20 00:16:14;;;;;;;7.73;6.17;;;;;;;22.86;62.38;97199.53;5068172;28;20193;-74
2023/08/20 00:18:41;;;;;;;7.10;6.27;;;;;;;22.77;63.36;97200.41;5069380;28;20291;-77
2023/08/20 00:21:09;;;;;;;6.90;6.13;;;;;;;22.57;63.12;97165.22;5069185;28;20200;-76
2023/08/20 00:23:36;;;;;;;10.40;6.93;;;;;;;22.76;63.59;97199.56;5069452;28;20200;-78
2023/08/20 00:26:04;;;;;;;10.37;6.77;;;;;;;23.05;63.03;97194.22;5068792;28;20203;-75
2023/08/20 00:28:33;;;;;;;7.50;6.07;;;;;;;23.11;62.66;97194.50;5069653;28;20743;-74
2023/08/20 00:31:02;;;;;;;8.60;5.83;;;;;;;23.26;61.92;97186.94;5067518;28;20188;-75
2023/08/20 00:33:30;;;;;;;8.53;6.30;;;;;;;23.70;60.75;97195.97;5051187;28;20193;-78
2023/08/20 00:35:58;;;;;;;8.03;5.73;;;;;;;23.44;60.99;97207.22;5069020;28;20340;-78
2023/08/20 00:38:25;;;;;;;7.17;6.40;;;;;;;23.29;61.60;97192.75;5067812;28;20550;-75
2023/08/20 00:40:53;;;;;;;7.43;6.27;;;;;;;23.00;62.57;97202.56;5067706;28;20726;-80
2023/08/20 00:43:20;;;;;;;7.47;6.67;;;;;;;22.98;61.89;97178.09;5068487;28;20185;-81
2023/08/20 00:45:48;;;;;;;8.10;6.03;;;;;;;23.06;61.57;97195.91;5051646;28;20186;-75
2023/08/20 00:48:17;;;;;;;6.60;5.77;;;;;;;23.47;61.23;97195.53;5068505;28;20227;-80
2023/08/20 00:50:44;;;;;;;6.73;5.90;;;;;;;23.67;59.82;97183.03;5068179;28;20300;-77
2023/08/20 00:53:13;;;;;;;7.20;6.07;;;;;;;23.66;59.76;97178.72;5068930;28;20620;-81
2023/08/20 00:55:42;;;;;;;7.13;6.40;;;;;;;23.94;58.69;97181.22;5067464;28;20189;-81
2023/08/20 00:58:10;;;;;;;7.30;6.03;;;;;;;24.07;58.62;97184.34;5067672;28;20209;-82
2023/08/20 01:00:37;;;;;;;7.00;5.90;;;;;;;24.02;58.17;97170.69;5068410;28;20285;-84
2023/08/20 01:03:04;;;;;;;6.77;5.90;;;;;;;24.14;57.90;97185.41;5068052;28;20202;-85
2023/08/20 01:05:38;;;;;;;8.20;6.43;;;;;;;23.99;57.83;97160.41;5068664;28;20261;-86
2023/08/20 01:08:39;;;;;;;7.60;5.93;;;;;;;23.87;58.61;97143.09;5068951;28;20213;-83
2023/08/20 01:11:12;;;;;;;7.33;6.17;;;;;;;23.85;58.36;97176.78;5035642;28;20681;-81
2023/08/20 01:13:39;;;;;;;8.70;6.80;;;;;;;23.84;58.24;97172.50;5068284;28;20194;-78
2023/08/20 01:16:06;;;;;;;8.50;6.33;;;;;;;23.68;58.68;97155.63;5067777;28;20191;-76
2023/08/20 01:18:33;;;;;;;7.97;7.10;;;;;;;23.55;59.74;97166.53;5068077;28;20285;-74
2023/08/20 01:21:16;;;;;;;9.80;6.17;;;;;;;23.67;59.54;97165.34;5068669;28;20189;-76
2023/08/20 01:24:02;;;;;;;6.73;6.03;;;;;;;23.40;60.10;97162.69;5066885;28;20213;-75
2023/08/20 01:26:49;;;;;;;8.30;6.47;;;;;;;23.17;61.10;97174.56;5050155;28;20275;-77
2023/08/20 01:29:16;;;;;;;6.83;6.20;;;;;;;22.56;62.53;97161.78;5068462;28;20196;-74
2023/08/20 01:31:44;;;;;;;9.83;6.30;;;;;;;22.42;63.52;97167.47;5068213;28;20189;-81
2023/08/20 01:34:13;;;;;;;7.77;6.47;;;;;;;22.38;63.53;97168.72;5066959;28;20688;-76
2023/08/20 01:36:40;;;;;;;7.60;6.77;;;;;;;22.42;63.45;97172.75;5068006;28;20226;-77
2023/08/20 01:39:10;;;;;;;7.23;6.47;;;;;;;22.37;63.49;97156.50;5049878;28;20197;-79
2023/08/20 01:41:37;;;;;;;7.67;6.53;;;;;;;22.81;62.39;97170.09;5050589;28;20202;-80
2023/08/20 01:44:04;;;;;;;8.23;6.47;;;;;;;22.93;61.72;97174.25;5067317;28;20193;-75
2023/08/20 01:46:32;;;;;;;8.13;6.73;;;;;;;22.70;61.55;97110.34;5066834;28;20193;-77
2023/08/20 01:48:59;;;;;;;7.37;6.43;;;;;;;23.17;60.45;97164.00;5066057;28;20615;-76
2023/08/20 01:51:26;;;;;;;8.93;6.63;;;;;;;23.13;60.28;97144.13;5067868;28;20201;-77
2023/08/20 01:53:54;;;;;;;7.67;6.20;;;;;;;23.20;60.38;97156.66;5067513;28;20273;-77
2023/08/20 01:56:22;;;;;;;6.87;6.17;;;;;;;23.37;60.30;97158.53;5066410;28;20203;-78
2023/08/20 01:58:49;;;;;;;6.90;6.00;;;;;;;23.31;59.83;97150.31;5066984;28;20193;-79
2023/08/20 02:01:17;;;;;;;12.27;6.43;;;;;;;23.27;59.99;97178.00;5065782;28;20209;-77
2023/08/20 02:03:44;;;;;;;7.73;6.53;;;;;;;22.85;61.16;97147.72;5068089;28;20657;-78
2023/08/20 02:06:11;;;;;;;10.97;6.63;;;;;;;22.93;62.13;97171.59;5066131;28;20184;-76
2023/08/20 02:08:38;;;;;;;9.83;6.47;;;;;;;22.95;61.98;97174.94;5066158;28;20703;-79
2023/08/20 02:11:05;;;;;;;7.10;6.13;;;;;;;22.98;61.88;97172.81;5067417;28;20185;-81
2023/08/20 02:13:32;;;;;;;9.70;7.07;;;;;;;22.96;61.54;97160.72;5049390;28;20196;-75
2023/08/20 02:16:02;;;;;;;6.77;5.97;;;;;;;23.07;61.12;97179.06;5066494;28;20187;-79
2023/08/20 02:18:49;;;;;;;9.33;6.27;;;;;;;23.24;61.07;97176.53;5066362;28;20707;-82
2023/08/20 02:21:17;;;;;;;9.23;6.87;;;;;;;23.30;60.49;97172.44;5073669;28;20196;-80
2023/08/20 02:23:44;;;;;;;10.17;6.03;;;;;;;23.19;60.84;97181.38;5069027;28;20619;-78
2023/08/20 02:26:11;;;;;;;7.93;6.33;;;;;;;23.08;61.55;97178.09;5065919;28;20192;-82
2023/08/20 02:28:38;;;;;;;8.67;6.20;;;;;;;22.76;62.22;97180.25;5067773;28;20235;-78
2023/08/20 02:31:06;;;;;;;7.80;6.23;;;;;;;22.16;63.81;97153.16;5067464;28;20672;-81
2023/08/20 02:33:33;;;;;;;7.40;6.67;;;;;;;22.49;63.09;97173.84;5068010;28;20211;-75
2023/08/20 02:36:02;;;;;;;8.03;6.17;;;;;;;22.41;63.47;97178.16;5066331;28;20274;-86
2023/08/20 02:38:30;;;;;;;8.60;6.30;;;;;;;22.49;64.00;97170.38;5066057;28;20246;-80
2023/08/20 02:40:57;;;;;;;7.20;6.43;;;;;;;22.53;64.75;97166.47;5048596;28;20587;-77
2023/08/20 02:43:25;;;;;;;10.53;6.67;;;;;;;22.75;64.11;97165.38;5066825;28;20193;-79
2023/08/20 02:45:52;;;;;;;9.43;6.57;;;;;;;22.67;64.57;97153.72;5065517;28;20874;-75
2023/08/20 02:48:19;;;;;;;8.90;6.17;;;;;;;22.84;64.86;97175.91;5048385;28;20657;-76
2023/08/20 02:50:47;;;;;;;7.67;6.87;;;;;;;22.74;65.22;97143.41;5067030;28;20656;-75
2023/08/20 02:53:14;;;;;;;7.80;6.50;;;;;;;22.95;65.17;97167.00;5064800;28;20196;-77
2023/08/20 02:55:41;;;;;;;10.80;7.37;;;;;;;23.09;64.31;97175.31;5065994;28;20188;-78
2023/08/20 02:58:08;;;;;;;7.77;7.03;;;;;;;23.13;64.08;97173.19;5066530;28;20284;-76
2023/08/20 03:00:36;;;;;;;10.23;7.63;;;;;;;22.76;64.86;97178.44;5066637;28;20188;-76
2023/08/20 03:03:07;;;;;;;9.23;7.20;;;;;;;22.46;64.56;97166.22;5065339;28;20763;-78
2023/08/20 03:05:37;;;;;;;7.87;7.03;;;;;;;22.18;65.57;97167.06;5065162;28;20197;-80
2023/08/20 03:08:04;;;;;;;7.33;6.63;;;;;;;21.91;66.23;97164.25;5065761;28;20220;-82
2023/08/20 03:10:32;;;;;;;9.27;7.00;;;;;;;21.78;66.42;97168.94;5064789;28;20266;-79
2023/08/20 03:13:01;;;;;;;11.10;7.67;;;;;;;21.80;65.83;97178.34;5066867;28;20188;-78
2023/08/20 03:15:28;;;;;;;11.30;6.43;;;;;;;22.03;65.87;97183.44;5070562;28;20275;-76
2023/08/20 03:17:55;;;;;;;8.43;7.00;;;;;;;22.00;65.34;97173.16;5069257;28;20190;-79
2023/08/20 03:20:23;;;;;;;10.33;6.63;;;;;;;22.17;65.46;97181.22;5070738;28;20202;-75
2023/08/20 03:22:50;;;;;;;9.03;6.73;;;;;;;21.92;65.53;97181.75;5068806;28;20199;-79
2023/08/20 03:25:17;;;;;;;8.37;6.97;;;;;;;22.07;65.46;97174.28;5070998;28;20234;-77
2023/08/20 03:27:45;;;;;;;9.07;7.10;;;;;;;21.94;65.46;97166.63;5069735;28;20217;-78
2023/08/20 03:30:12;;;;;;;12.27;7.20;;;;;;;22.07;65.22;97183.00;5069372;28;20218;-76
2023/08/20 03:32:42;;;;;;;13.17;7.13;;;;;;;22.13;65.32;97190.41;5069053;28;20222;-79
2023/08/20 03:35:09;;;;;;;16.93;8.83;;;;;;;22.04;63.88;97143.72;5069399;28;20738;-82
2023/08/20 03:37:37;;;;;;;10.17;6.90;;;;;;;22.24;64.50;97182.31;5052647;28;20234;-79
2023/08/20 03:40:05;;;;;;;8.87;7.10;;;;;;;22.46;64.20;97189.16;5070280;28;20189;-79
2023/08/20 03:42:32;;;;;;;9.73;7.17;;;;;;;22.31;63.90;97185.25;5070750;28;20674;-79
2023/08/20 03:44:59;;;;;;;10.27;7.57;;;;;;;22.33;64.75;97188.59;5068285;28;20192;-81
2023/08/20 03:47:26;;;;;;;10.80;7.07;;;;;;;22.49;64.02;97192.34;5069899;28;20190;-81
2023/08/20 03:49:53;;;;;;;11.30;7.63;;;;;;;22.53;63.85;97198.16;5068607;28;20718;-85
2023/08/20 03:52:20;;;;;;;9.93;6.90;;;;;;;22.53;63.74;97192.88;5069138;28;20198;-85
2023/08/20 03:54:47;;;;;;;11.27;7.63;;;;;;;22.39;64.00;97172.19;5069099;28;20191;-85
2023/08/20 03:57:15;;;;;;;8.43;6.83;;;;;;;22.68;63.33;97188.88;5068824;28;20193;-79
2023/08/20 03:59:42;;;;;;;10.80;7.40;;;;;;;22.88;63.10;97190.50;5070576;28;20198;-82
2023/08/20 04:02:09;;;;;;;9.63;7.37;;;;;;;22.96;62.10;97187.16;5068247;28;20673;-84
2023/08/20 04:04:37;;;;;;;8.37;7.30;;;;;;;22.99;62.55;97184.22;5070495;28;20189;-84
2023/08/20 04:07:04;;;;;;;8.23;6.90;;;;;;;23.42;61.01;97188.03;5068533;28;20205;-84
2023/08/20 04:09:33;;;;;;;8.20;6.47;;;;;;;23.33;60.94;97195.97;5068720;28;20278;-85
2023/08/20 04:12:00;;;;;;;8.57;7.07;;;;;;;23.43;61.06;97178.28;5051729;28;20575;-84
2023/08/20 04:14:28;;;;;;;11.00;7.83;;;;;;;23.71;59.84;97187.03;5070419;28;20214;-83
2023/08/20 04:16:55;;;;;;;10.80;6.33;;;;;;;23.77;59.05;97183.81;5071026;28;20186;-85
2023/08/20 04:19:22;;;;;;;8.47;6.80;;;;;;;23.50;60.24;97202.31;5069491;28;20241;-86
2023/08/20 04:21:51;;;;;;;7.90;6.10;;;;;;;23.66;60.32;97194.59;5074497;28;20189;-76
2023/08/20 04:24:18;;;;;;;10.63;6.90;;;;;;;23.69;60.27;97186.34;5078572;28;20199;-85
2023/08/20 04:26:46;;;;;;;8.83;6.53;;;;;;;23.79;60.50;97177.38;5076368;28;20182;-86
2023/08/20 04:29:17;;;;;;;9.70;7.13;;;;;;;24.01;59.61;97205.22;5065519;28;20233;-75
2023/08/20 04:31:44;;;;;;;9.67;6.07;;;;;;;24.17;58.97;97211.56;5072272;28;20578;-85
2023/08/20 04:34:11;;;;;;;9.37;7.57;;;;;;;24.40;58.66;97204.00;5071665;28;20278;-85
2023/08/20 04:36:49;;;;;;;10.67;7.33;;;;;;;24.71;57.25;97209.78;5067682;28;20707;-84
2023/08/20 04:39:17;;;;;;;8.97;6.70;;;;;;;24.70;57.65;97208.09;5068431;28;20189;-81
2023/08/20 04:41:48;;;;;;;10.73;7.27;;;;;;;24.91;55.80;97209.47;5067922;28;20191;-85
2023/08/20 04:44:18;;;;;;;9.57;6.63;;;;;;;24.74;56.23;97194.44;5068383;28;20605;-79
2023/08/20 04:46:46;;;;;;;10.43;7.00;;;;;;;24.96;56.69;97209.81;5067651;28;20684;-78
2023/08/20 04:49:13;;;;;;;7.10;5.80;;;;;;;25.07;56.19;97214.03;5067317;28;20311;-84
2023/08/20 04:51:40;;;;;;;7.70;6.33;;;;;;;25.19;56.58;97204.00;5067654;28;20279;-76
2023/08/20 04:54:07;;;;;;;8.70;6.77;;;;;;;25.03;55.79;97215.34;5066576;28;20283;-75
2023/08/20 04:56:34;;;;;;;8.23;6.23;;;;;;;25.28;55.58;97214.50;5067437;28;20191;-79
2023/08/20 04:59:01;;;;;;;7.53;6.30;;;;;;;25.02;55.61;97209.19;5066535;28;20672;-78
2023/08/20 05:02:07;;;;;;;9.57;6.43;;;;;;;24.85;56.42;97215.34;5025333;28;20190;-75
2023/08/20 05:04:43;;;;;;;13.10;6.60;;;;;;;25.06;56.68;97217.66;5009620;28;20308;-75
2023/08/20 05:07:10;;;;;;;10.03;6.33;;;;;;;25.02;55.82;97197.75;5038463;28;20208;-84
2023/08/20 05:09:37;;;;;;;8.17;6.63;;;;;;;25.04;57.37;97211.69;5050630;28;20230;-77
2023/08/20 05:12:06;;;;;;;8.40;6.90;;;;;;;25.35;55.50;97217.38;5066598;28;20316;-76
2023/08/20 05:14:34;;;;;;;9.17;6.73;;;;;;;24.97;56.33;97210.66;5067200;28;20185;-78
2023/08/20 05:17:02;;;;;;;9.07;6.53;;;;;;;24.81;56.95;97211.34;5051862;28;20269;-82
2023/08/20 05:19:29;;;;;;;8.43;6.33;;;;;;;24.46;58.68;97215.84;5066838;28;20279;-79
2023/08/20 05:21:58;;;;;;;7.93;6.40;;;;;;;24.87;56.95;97212.56;5065218;28;20283;-84
2023/08/20 05:24:29;;;;;;;16.03;7.00;;;;;;;24.93;56.43;97223.41;5079829;28;20193;-84
2023/08/20 05:27:14;;;;;;;8.30;6.23;;;;;;;24.58;58.57;97215.47;5047143;28;20517;-80
2023/08/20 05:29:43;;;;;;;9.53;6.00;;;;;;;24.68;58.20;97226.78;5047421;28;20688;-86
2023/08/20 05:32:10;;;;;;;8.07;7.00;;;;;;;24.53;58.23;97223.00;5047861;28;20258;-77
2023/08/20 05:34:38;;;;;;;7.87;6.67;;;;;;;24.89;57.79;97224.66;5046814;28;20193;-82
2023/08/20 05:37:05;;;;;;;7.47;6.57;;;;;;;25.02;57.26;97224.25;5046791;28;20229;-81
2023/08/20 05:39:38;;;;;;;8.87;6.63;;;;;;;25.30;56.62;97211.69;5049356;28;20627;-80
2023/08/20 05:42:05;;;;;;;7.40;6.40;;;;;;;25.57;55.17;97220.34;5058762;28;20212;-86
2023/08/20 05:44:33;;;;;;;8.10;6.67;;;;;;;25.73;55.25;97222.22;5100848;28;20196;-79
2023/08/20 05:47:02;;;;;;;7.47;6.77;;;;;;;25.77;55.03;97226.22;5065685;28;20196;-79
2023/08/20 05:49:30;;;;;;;7.70;6.40;;;;;;;25.67;55.06;97225.53;5066257;28;20217;-75
2023/08/20 05:51:58;;;;;;;8.37;6.17;;;;;;;25.29;55.55;97224.13;5064441;28;20211;-82
2023/08/20 05:54:29;;;;;;;8.40;6.40;;;;;;;25.58;55.21;97224.66;5061134;28;20200;-79
2023/08/20 05:56:57;;;;;;;9.63;6.37;;;;;;;25.83;54.68;97217.63;5066711;28;20242;-76
2023/08/20 05:59:24;;;;;;;9.83;6.00;;;;;;;25.84;53.55;97220.13;5064528;28;20715;-77
2023/08/20 06:01:53;;;;;;;7.90;6.50;;;;;;;25.95;52.57;97204.88;5062360;28;20199;-78
2023/08/20 06:04:20;;;;;;;7.40;6.67;;;;;;;26.09;52.94;97221.06;5069979;28;20270;-83
2023/08/20 06:06:47;;;;;;;9.37;6.47;;;;;;;25.92;53.63;97210.53;5066986;28;20683;-85
2023/08/20 06:09:14;;;;;;;8.10;6.33;;;;;;;25.98;53.96;97215.19;5069718;28;20307;-82
2023/08/20 06:11:41;;;;;;;8.23;6.60;;;;;;;26.34;53.26;97212.16;5068628;28;20201;-84
2023/08/20 06:14:08;;;;;;;7.27;6.57;;;;;;;26.77;52.39;97221.69;5069335;28;20763;-74
2023/08/20 06:16:36;;;;;;;8.27;6.87;;;;;;;26.81;51.87;97227.53;5072799;28;20185;-78
2023/08/20 06:19:03;;;;;;;10.27;6.97;;;;;;;26.81;52.06;97231.00;5073442;28;20200;-78
2023/08/20 06:21:31;;;;;;;7.10;6.23;;;;;;;26.99;51.19;97231.69;5070617;28;20212;-75
2023/08/20 06:23:58;;;;;;;10.57;7.90;;;;;;;27.12;51.92;97225.84;5068322;28;20199;-73
2023/08/20 06:26:26;;;;;;;10.93;7.97;;;;;;;27.20;50.71;97210.69;5066475;28;20837;-76
2023/08/20 06:28:53;;;;;;;9.50;7.70;;;;;;;27.21;50.48;97176.94;5067494;28;20221;-81
2023/08/20 06:31:20;;;;;;;9.77;7.13;;;;;;;27.76;49.77;97227.56;5067355;28;20201;-80
2023/08/20 06:33:47;;;;;;;10.10;6.60;;;;;;;27.59;48.70;97208.16;5067943;28;20732;-79
2023/08/20 06:36:14;;;;;;;7.33;6.50;;;;;;;27.53;49.71;97213.31;5069993;28;20245;-73
2023/08/20 06:38:44;;;;;;;15.07;6.20;;;;;;;27.76;48.92;97224.91;5069597;28;20311;-85
2023/08/20 06:41:11;;;;;;;17.43;6.73;;;;;;;27.95;48.09;97227.13;5068989;28;20228;-73
2023/08/20 06:43:38;;;;;;;7.70;6.90;;;;;;;27.93;48.60;97226.47;5066870;28;20194;-74
2023/08/20 06:46:05;;;;;;;6.27;5.60;;;;;;;27.95;48.44;97219.13;5063264;28;20189;-74
2023/08/20 06:48:32;;;;;;;8.03;6.77;;;;;;;27.80;48.88;97231.53;5074117;28;20276;-76
2023/08/20 06:51:07;;;;;;;8.03;6.00;;;;;;;27.81;48.33;97204.72;5071736;28;20193;-74
2023/08/20 06:53:35;;;;;;;12.90;7.00;;;;;;;28.15;48.08;97242.53;5073224;28;20288;-72
2023/08/20 06:56:04;;;;;;;12.27;8.43;;;;;;;27.97;48.70;97243.78;5068320;28;20190;-77
2023/08/20 06:58:31;;;;;;;8.33;6.00;;;;;;;28.01;48.30;97237.13;5069223;28;20235;-73
2023/08/20 07:01:06;;;;;;;8.33;5.90;;;;;;;28.18;47.42;97236.88;5067945;28;20635;-74
2023/08/20 07:03:35;;;;;;;10.90;5.80;;;;;;;28.35;46.49;97232.28;5067872;28;20204;-78
2023/08/20 07:06:03;;;;;;;8.00;6.50;;;;;;;28.62;47.03;97238.97;5049054;28;20755;-78
2023/08/20 07:08:30;;;;;;;11.27;6.10;;;;;;;28.69;45.76;97224.75;5068367;28;20668;-80
2023/08/20 07:10:57;;;;;;;7.87;5.50;;;;;;;28.87;44.26;97235.94;5069560;28;20214;-78
2023/08/20 07:13:24;;;;;;;7.70;5.60;;;;;;;29.20;44.34;97243.72;5069226;28;20235;-74
2023/08/20 07:15:51;;;;;;;7.10;5.70;;;;;;;29.30;42.32;97233.59;5067455;28;20200;-72
2023/08/20 07:18:18;;;;;;;6.53;5.43;;;;;;;29.29;42.20;97207.91;5049396;28;20291;-78
2023/08/20 07:20:46;;;;;;;8.60;4.93;;;;;;;29.58;41.10;97235.47;5067608;28;20193;-75
2023/08/20 07:23:13;;;;;;;8.10;5.10;;;;;;;29.58;41.06;97242.66;5068657;28;20216;-84
2023/08/20 07:25:41;;;;;;;7.00;4.87;;;;;;;29.70;39.26;97214.47;5067294;28;20195;-79
2023/08/20 07:28:08;;;;;;;6.07;4.63;;;;;;;29.84;38.24;97235.06;5065855;28;20196;-80
2023/08/20 07:31:15;;;;;;;10.83;6.07;;;;;;;30.10;39.01;97227.38;5062012;28;20225;-82
2023/08/20 07:34:36;;;;;;;7.10;5.90;;;;;;;30.21;40.10;97234.88;5060379;28;20703;-73
2023/08/20 07:37:57;;;;;;;7.37;5.33;;;;;;;30.23;39.16;97232.03;5063662;28;20256;-76
2023/08/20 07:40:38;;;;;;;9.30;4.70;;;;;;;30.28;38.21;97222.44;5057719;28;20284;-76
2023/08/20 07:43:05;;;;;;;7.27;4.80;;;;;;;30.27;37.62;97211.94;5044248;28;20197;-76
2023/08/20 07:45:32;;;;;;;4.93;3.83;;;;;;;30.48;36.88;97231.53;5046529;28;20189;-73
2023/08/20 07:47:59;;;;;;;4.40;4.00;;;;;;;30.36;36.34;97214.34;5046065;28;20213;-73
2023/08/20 07:50:26;;;;;;;6.10;4.33;;;;;;;29.95;37.25;97191.81;5046154;28;20609;-76
2023/08/20 07:53:13;;;;;;;4.30;3.90;;;;;;;29.93;36.79;97193.03;5050343;28;20192;-75
2023/08/20 07:55:40;;;;;;;5.90;3.80;;;;;;;30.13;37.04;97181.56;5056719;28;20318;-73
2023/08/20 07:58:47;;;;;;;5.63;4.07;;;;;;;30.53;36.49;97202.41;5066519;28;20200;-74
2023/08/20 08:01:27;;;;;;;6.53;3.97;;;;;;;30.67;35.74;97194.47;5061169;28;20208;-78
2023/08/20 08:03:54;;;;;;;5.17;4.67;;;;;;;30.79;35.60;97207.16;5049429;28;20194;-74
2023/08/20 08:06:24;;;;;;;7.03;4.50;;;;;;;30.95;35.79;97211.47;5050030;28;20194;-76
2023/08/20 08:08:51;;;;;;;5.57;4.30;;;;;;;30.98;35.46;97203.03;5051791;28;20670;-75
2023/08/20 08:11:18;;;;;;;4.70;4.30;;;;;;;31.05;35.17;97204.75;5061718;28;20197;-74
2023/08/20 08:13:45;;;;;;;8.20;4.30;;;;;;;31.00;35.31;97187.59;5069046;28;20600;-79
2023/08/20 08:16:12;;;;;;;6.40;4.63;;;;;;;30.77;35.11;97185.13;5069681;28;20591;-77
2023/08/20 08:18:39;;;;;;;5.50;4.20;;;;;;;30.98;35.49;97209.22;5069180;28;20193;-74
2023/08/20 08:21:06;;;;;;;5.63;4.40;;;;;;;31.01;37.33;97203.50;5068948;28;20190;-71
2023/08/20 08:23:33;;;;;;;7.13;4.27;;;;;;;31.22;35.41;97207.97;5068432;28;20195;-80
2023/08/20 08:26:00;;;;;;;5.35;3.92;;;;;;;31.34;35.35;97206.41;5068636;28;20285;-74
2023/08/20 08:28:27;;;;;;;4.87;4.30;;;;;;;31.30;35.54;97210.50;5069830;28;20185;-80
2023/08/20 08:30:54;;;;;;;6.30;4.13;;;;;;;31.22;35.20;97202.63;5068756;28;20241;-77
2023/08/20 08:33:21;;;;;;;5.45;3.60;;;;;;;31.22;35.13;97192.72;5069241;28;20617;-73
2023/08/20 08:35:48;;;;;;;4.63;3.45;;;;;;;31.26;35.09;97193.97;5068526;28;20189;-75
2023/08/20 08:38:15;;;;;;;6.23;4.47;;;;;;;31.40;35.50;97194.94;5068830;28;20193;-72
2023/08/20 08:40:42;;;;;;;5.97;4.00;;;;;;;31.34;34.88;97163.56;5068227;28;20628;-74
2023/08/20 08:43:16;;;;;;;7.32;4.07;;;;;;;31.47;34.85;97205.72;5068960;28;20182;-76
2023/08/20 08:45:49;;;;;;;7.07;3.97;;;;;;;31.23;35.09;97198.91;5068135;28;20507;-73
2023/08/20 08:48:18;;;;;;;5.23;3.90;;;;;;;30.52;36.32;97179.34;5068301;28;20846;-75
2023/08/20 08:50:46;;;;;;;4.20;3.80;;;;;;;30.68;36.73;97186.28;5067357;28;20618;-73
2023/08/20 08:53:13;;;;;;;6.13;4.00;;;;;;;30.88;35.96;97190.00;5068749;28;20632;-73
2023/08/20 08:55:40;;;;;;;6.80;4.90;;;;;;;30.75;36.29;97199.72;5068867;28;20185;-73
2023/08/20 08:58:09;;;;;;;4.23;3.70;;;;;;;31.12;35.97;97191.41;5067985;28;20185;-73
2023/08/20 09:00:37;;;;;;;7.37;4.40;;;;;;;31.33;36.79;97180.66;5066408;28;20211;-78
2023/08/20 09:03:04;;;;;;;7.13;3.97;;;;;;;31.47;35.42;97187.75;5067594;28;20259;-74
2023/08/20 09:05:31;;;;;;;6.73;4.20;;;;;;;31.59;35.63;97191.56;5066997;28;20238;-76
2023/08/20 09:07:59;;;;;;;6.97;3.97;;;;;;;31.67;35.96;97196.75;5068235;28;20668;-74
2023/08/20 09:10:27;;;;;;;4.87;3.57;;;;;;;31.72;34.72;97188.94;5068196;28;20604;-76
2023/08/20 09:12:57;;;;;;;7.10;4.27;;;;;;;31.70;35.54;97169.56;5065674;28;20201;-75
2023/08/20 09:15:32;;;;;;;6.60;4.05;;;;;;;31.85;34.96;97183.66;5068338;28;20189;-80
2023/08/20 09:18:03;;;;;;;4.83;3.97;;;;;;;31.89;35.30;97192.13;5066001;28;20193;-74
2023/08/20 09:20:37;;;;;;;5.95;4.00;;;;;;;31.09;36.24;97184.63;5068956;28;20185;-77
2023/08/20 09:23:12;;;;;;;4.77;3.70;;;;;;;31.10;36.25;97204.16;5066914;28;20212;-74
2023/08/20 09:25:39;;;;;;;8.50;4.27;;;;;;;30.98;36.68;97192.31;5068393;28;20204;-74
2023/08/20 09:28:06;;;;;;;5.50;3.40;;;;;;;30.76;36.88;97186.16;5068207;28;20649;-76
2023/08/20 09:30:34;;;;;;;8.35;4.43;;;;;;;30.83;37.48;97196.91;5067746;28;20220;-77
2023/08/20 09:33:14;;;;;;;6.40;4.07;;;;;;;30.90;36.75;97204.00;5070072;28;20200;-73
2023/08/20 09:35:51;;;;;;;5.80;4.20;;;;;;;30.74;37.04;97192.72;5069074;28;20188;-87
2023/08/20 09:38:38;;;;;;;4.53;3.90;;;;;;;30.68;36.85;97188.97;5100397;28;20271;-74
2023/08/20 09:41:08;;;;;;;6.43;4.03;;;;;;;31.01;37.48;97202.66;5068533;28;20193;-77
2023/08/20 09:43:39;;;;;;;5.43;4.17;;;;;;;30.89;36.60;97191.63;5068055;28;20274;-77
2023/08/20 09:46:10;;;;;;;10.60;4.90;;;;;;;30.86;36.85;97186.69;5067465;28;20177;-79
2023/08/20 09:48:38;;;;;;;6.27;4.43;;;;;;;31.01;37.23;97194.63;5067163;28;20600;-84
2023/08/20 09:51:10;;;;;;;6.97;4.50;;;;;;;30.83;37.94;97186.22;5065665;28;20704;-77
2023/08/20 09:53:56;;;;;;;4.40;3.97;;;;;;;30.93;36.56;97184.91;5048075;28;20277;-82
2023/08/20 09:56:31;;;;;;;5.13;4.00;;;;;;;31.07;36.92;97183.16;5050726;28;20728;-78
2023/08/20 09:58:58;;;;;;;5.45;4.43;;;;;;;30.84;36.70;97190.53;5049659;28;20186;-74
2023/08/20 10:01:27;;;;;;;4.15;3.75;;;;;;;31.16;37.04;97182.78;5047432;28;20669;-78
2023/08/20 10:03:54;;;;;;;6.83;4.50;;;;;;;31.34;36.57;97185.00;5048015;28;20292;-76
2023/08/20 10:06:24;;;;;;;7.70;4.50;;;;;;;31.26;36.40;97163.72;5047466;28;20186;-74
2023/08/20 10:08:53;;;;;;;4.43;4.03;;;;;;;31.12;37.08;97183.38;5046301;28;20639;-79
2023/08/20 10:11:20;;;;;;;5.78;4.13;;;;;;;31.32;36.81;97197.75;5048279;28;20218;-79
2023/08/20 10:13:47;;;;;;;6.30;4.25;;;;;;;31.12;36.32;97194.06;5056624;28;20194;-74
2023/08/20 10:16:20;;;;;;;5.50;4.10;;;;;;;31.13;37.07;97212.63;5048696;28;20210;-73
2023/08/20 10:18:48;;;;;;;4.83;3.80;;;;;;;30.95;36.61;97174.84;5047897;28;20198;-80
2023/08/20 10:21:15;;;;;;;6.80;4.47;;;;;;;31.04;37.15;97204.94;5046902;28;20196;-77
2023/08/20 10:23:49;;;;;;;5.33;4.13;;;;;;;31.22;36.89;97189.25;5048607;28;20200;-76
2023/08/20 10:26:24;;;;;;;7.70;4.50;;;;;;;31.25;36.34;97180.81;5046538;28;20703;-83
2023/08/20 10:28:51;;;;;;;5.72;4.28;;;;;;;31.23;36.61;97178.31;5048120;28;20186;-82
2023/08/20 10:31:19;;;;;;;5.32;4.15;;;;;;;31.68;35.46;97174.28;5047524;28;20241;-76
2023/08/20 10:33:46;;;;;;;5.60;4.13;;;;;;;31.50;35.94;97190.06;5064070;28;20254;-76
2023/08/20 10:36:22;;;;;;;5.22;4.15;;;;;;;31.45;36.67;97184.47;5066558;28;20213;-75
2023/08/20 10:38:50;;;;;;;5.60;4.33;;;;;;;31.12;36.46;97160.13;5064531;28;20197;-74
2023/08/20 10:41:25;;;;;;;4.97;4.43;;;;;;;31.46;36.26;97164.72;5063475;28;20292;-82
2023/08/20 10:43:53;;;;;;;8.52;4.22;;;;;;;31.39;36.29;97128.19;5046842;28;20182;-80
2023/08/20 10:46:25;;;;;;;6.73;4.97;;;;;;;31.64;35.97;97170.38;5047373;28;20188;-74
2023/08/20 10:48:57;;;;;;;8.27;4.50;;;;;;;31.67;36.33;97164.63;5047146;28;20189;-81
2023/08/20 10:51:30;;;;;;;6.10;4.50;;;;;;;31.76;36.06;97152.69;5047610;28;20225;-85
2023/08/20 10:54:00;;;;;;;5.93;4.20;;;;;;;31.96;35.57;97176.94;5060321;28;20193;-87
2023/08/20 10:56:49;;;;;;;9.70;4.85;;;;;;;32.01;35.56;97159.22;5067254;28;20263;-83
2023/08/20 10:59:18;;;;;;;6.18;4.03;;;;;;;31.82;35.66;97151.91;5067621;28;20276;-81
2023/08/20 11:01:47;;;;;;;8.25;5.07;;;;;;;31.70;36.15;97158.84;5066386;28;20221;-76
2023/08/20 11:04:23;;;;;;;9.20;4.80;;;;;;;31.56;36.44;97162.50;5067591;28;20279;-80
2023/08/20 11:06:56;;;;;;;6.50;4.72;;;;;;;31.63;36.38;97154.50;5066701;28;20718;-81
2023/08/20 11:09:25;;;;;;;8.13;4.43;;;;;;;31.55;36.08;97163.50;5066797;28;20193;-78
2023/08/20 11:11:53;;;;;;;7.90;5.00;;;;;;;31.99;35.12;97136.31;5067217;28;20182;-77
2023/08/20 11:14:21;;;;;;;7.68;4.72;;;;;;;32.17;35.24;97141.13;5068260;28;20529;-77
2023/08/20 11:16:50;;;;;;;5.03;4.30;;;;;;;32.18;34.64;97140.09;5070062;28;20212;-81
2023/08/20 11:19:22;;;;;;;5.35;4.40;;;;;;;32.06;34.10;97162.13;5067277;28;20203;-79
2023/08/20 11:21:50;;;;;;;6.95;4.28;;;;;;;31.81;34.99;97138.72;5067746;28;20254;-80
2023/08/20 11:24:19;;;;;;;5.93;4.32;;;;;;;32.03;34.22;97153.66;5071018;28;20193;-81
2023/08/20 11:26:55;;;;;;;4.10;3.47;;;;;;;32.03;32.96;97130.38;5069645;28;20197;-82
2023/08/20 11:29:22;;;;;;;4.75;3.88;;;;;;;32.07;32.69;97142.34;5048757;28;20205;-82
2023/08/20 11:31:49;;;;;;;6.38;3.85;;;;;;;32.04;33.26;97121.31;5066484;28;20638;-84
2023/08/20 11:34:18;;;;;;;3.65;3.13;;;;;;;32.01;33.42;97151.19;5066164;28;20225;-78
2023/08/20 11:36:46;;;;;;;5.70;3.90;;;;;;;31.81;33.29;97118.09;5070185;28;20320;-81
2023/08/20 11:39:13;;;;;;;5.40;3.75;;;;;;;32.02;33.79;97135.94;5072524;28;20185;-84
2023/08/20 11:41:40;;;;;;;8.63;3.80;;;;;;;31.84;33.65;97139.13;5070116;28;20213;-77
2023/08/20 11:44:11;;;;;;;6.80;4.05;;;;;;;32.15;33.95;97143.19;5070181;28;20189;-81